Time;durP1;ratioP1;P1;durP2;ratioP2;P2;SDS_P1;SDS_P2;PMS_P1;PMS_P2;Temp;Humidity;BMP_temperature;BMP_pressure;BME280_temperature;BME280_humidity;BME280_pressure;Samples;Min_cycle;Max_cycle;Signal;HPM_P1;HPM_P2
2023/03/28 00:01:11;;;;;;;;;1.00;0.75;;;;;4.97;65.96;102629.22;4995970;28;1029104;-64
2023/03/28 00:03:38;;;;;;;;;0.75;0.75;;;;;4.93;66.14;102619.75;5032108;28;11457;-63
2023/03/28 00:06:12;;;;;;;;;0.00;0.00;;;;;4.91;66.67;102635.03;5032535;28;11459;-63
2023/03/28 00:08:39;;;;;;;;;0.75;0.75;;;;;4.89;66.63;102633.44;5020284;28;11468;-64
2023/03/28 00:11:18;;;;;;;;;0.75;0.75;;;;;4.86;66.61;102631.88;5032855;28;11448;-69
2023/03/28 00:13:56;;;;;;;;;2.50;1.50;;;;;4.84;66.83;102638.28;5032755;28;11543;-68
2023/03/28 00:16:24;;;;;;;;;1.00;0.00;;;;;4.80;66.77;102639.47;5031539;28;11491;-68
2023/03/28 00:18:51;;;;;;;;;1.25;0.75;;;;;4.78;67.11;102636.91;5031821;28;11494;-70
2023/03/28 00:21:23;;;;;;;;;2.00;1.00;;;;;4.75;67.16;102634.47;5029356;28;11475;-70
2023/03/28 00:23:56;;;;;;;;;1.00;1.00;;;;;4.71;67.27;102633.00;5032332;28;11459;-69
2023/03/28 00:26:25;;;;;;;;;3.00;1.00;;;;;4.66;66.92;102633.31;5031855;28;11498;-69
2023/03/28 00:28:52;;;;;;;;;1.00;1.00;;;;;4.62;67.18;102631.00;5031173;28;11467;-69
2023/03/28 00:31:18;;;;;;;;;1.75;1.75;;;;;4.59;67.18;102626.72;5026829;28;12829;-69
2023/03/28 00:33:46;;;;;;;;;2.00;1.50;;;;;4.58;67.44;102634.84;5032194;28;11507;-68
2023/03/28 00:36:17;;;;;;;;;1.25;1.25;;;;;4.53;67.09;102627.16;5032009;28;11538;-66
2023/03/28 00:38:44;;;;;;;;;1.00;1.00;;;;;4.47;67.27;102628.47;5030703;28;11479;-64
2023/03/28 00:41:14;;;;;;;;;1.00;1.00;;;;;4.47;67.33;102632.94;5025330;28;11467;-66
2023/03/28 00:43:43;;;;;;;;;0.00;0.00;;;;;4.45;67.64;102627.69;4995281;28;11477;-67
2023/03/28 00:46:31;;;;;;;;;1.50;1.50;;;;;4.43;67.31;102628.78;5030271;28;11459;-64
2023/03/28 00:49:11;;;;;;;;;0.00;0.00;;;;;4.38;67.08;102626.47;5005332;28;11561;-65
2023/03/28 00:51:49;;;;;;;;;1.00;1.00;;;;;4.36;67.27;102636.38;5029894;28;11465;-67
2023/03/28 00:54:18;;;;;;;;;1.00;1.00;;;;;4.35;67.71;102631.16;5014092;28;12239;-66
2023/03/28 00:56:54;;;;;;;;;1.00;1.00;;;;;4.33;67.98;102633.91;5031547;28;11440;-66
2023/03/28 00:59:25;;;;;;;;;0.00;0.00;;;;;4.30;67.87;102630.66;5031843;28;11569;-66
2023/03/28 01:01:54;;;;;;;;;2.50;2.00;;;;;4.29;68.22;102631.59;5030408;28;11491;-66
2023/03/28 01:04:26;;;;;;;;;2.75;0.75;;;;;4.31;68.14;102630.53;5012900;28;11449;-69
2023/03/28 01:06:55;;;;;;;;;1.75;1.00;;;;;4.30;68.12;102625.31;5003283;28;12220;-69
2023/03/28 01:09:23;;;;;;;;;0.00;0.00;;;;;4.28;68.06;102622.72;4994404;28;12169;-69
2023/03/28 01:11:53;;;;;;;;;1.50;1.00;;;;;4.26;68.23;102614.00;5002714;28;11508;-69
2023/03/28 01:14:23;;;;;;;;;0.25;0.25;;;;;4.25;68.04;102624.75;4993913;28;11500;-69
2023/03/28 01:16:55;;;;;;;;;2.00;1.00;;;;;4.24;67.91;102618.59;5006914;28;11541;-69
2023/03/28 01:19:43;;;;;;;;;0.00;0.00;;;;;4.24;67.78;102623.06;5027391;28;11464;-69
2023/03/28 01:23:00;;;;;;;;;0.00;0.00;;;;;4.22;67.88;102608.03;4993908;28;11581;-68
2023/03/28 01:25:30;;;;;;;;;4.00;0.00;;;;;4.20;67.59;102614.44;5011519;28;11497;-68
2023/03/28 01:28:01;;;;;;;;;1.75;0.75;;;;;4.20;68.32;102611.78;5027676;28;11467;-69
2023/03/28 01:30:45;;;;;;;;;0.00;0.00;;;;;4.20;67.91;102611.78;5026708;28;11585;-67
2023/03/28 01:33:44;;;;;;;;;2.00;0.00;;;;;4.19;68.07;102607.41;5023859;28;11480;-70
2023/03/28 01:36:32;;;;;;;;;0.25;0.25;;;;;4.18;68.10;102608.38;5010980;28;11453;-67
2023/03/28 01:39:19;;;;;;;;;0.75;0.00;;;;;4.18;67.92;102606.56;5012309;28;11472;-68
2023/03/28 01:42:00;;;;;;;;;0.00;0.00;;;;;4.16;67.93;102596.97;5013262;28;11452;-69
2023/03/28 01:44:37;;;;;;;;;0.25;0.25;;;;;4.14;67.64;102604.22;5011823;28;11485;-69
2023/03/28 01:47:25;;;;;;;;;1.00;1.00;;;;;4.11;67.74;102599.94;5019086;28;11478;-68
2023/03/28 01:50:07;;;;;;;;;1.00;0.00;;;;;4.08;67.53;102600.16;5010059;28;11470;-69
2023/03/28 01:52:41;;;;;;;;;2.25;1.00;;;;;4.06;67.81;102601.25;4994716;28;11484;-69
2023/03/28 01:55:17;;;;;;;;;2.00;1.00;;;;;4.03;67.43;102599.66;5027731;28;11524;-70
2023/03/28 01:58:00;;;;;;;;;0.50;0.50;;;;;3.99;68.10;102594.66;5028713;28;11472;-69
2023/03/28 02:00:46;;;;;;;;;0.00;0.00;;;;;3.95;68.26;102600.19;5013040;28;11460;-72
2023/03/28 02:03:27;;;;;;;;;1.00;1.00;;;;;3.94;68.33;102602.97;5008583;28;11597;-70
2023/03/28 02:06:00;;;;;;;;;0.50;0.50;;;;;3.91;68.01;102603.19;5009529;28;11472;-71
2023/03/28 02:08:31;;;;;;;;;1.00;1.00;;;;;3.84;68.09;102593.91;5021685;28;11466;-71
2023/03/28 02:11:13;;;;;;;;;1.50;1.50;;;;;3.82;68.35;102598.50;5028560;28;11501;-68
2023/03/28 02:14:08;;;;;;;;;1.00;1.00;;;;;3.80;68.28;102603.91;5022836;28;11466;-69
2023/03/28 02:16:56;;;;;;;;;0.00;0.00;;;;;3.76;68.75;102594.44;5025841;28;12245;-69
2023/03/28 02:19:52;;;;;;;;;2.00;2.00;;;;;3.72;68.47;102595.59;5001716;28;11474;-69
2023/03/28 02:22:43;;;;;;;;;0.50;0.50;;;;;3.73;68.80;102600.00;5012888;28;11688;-67
2023/03/28 02:25:48;;;;;;;;;1.25;1.00;;;;;3.69;68.88;102602.00;4988575;28;11434;-68
2023/03/28 02:28:36;;;;;;;;;1.00;1.00;;;;;3.68;69.02;102592.28;4972307;28;11420;-68
2023/03/28 02:31:08;;;;;;;;;1.00;1.00;;;;;3.72;69.08;102599.13;4998117;28;12179;-69
2023/03/28 02:33:41;;;;;;;;;0.50;0.25;;;;;3.73;68.99;102597.34;5028206;28;11472;-68
2023/03/28 02:36:31;;;;;;;;;1.00;1.00;;;;;3.73;69.41;102597.34;5024521;28;11496;-68
2023/03/28 02:39:06;;;;;;;;;0.00;0.00;;;;;3.73;69.04;102600.00;4977296;28;11570;-70
2023/03/28 02:41:42;;;;;;;;;0.75;0.75;;;;;3.71;69.05;102593.91;5028722;28;11531;-70
2023/03/28 02:44:25;;;;;;;;;2.50;1.00;;;;;3.71;69.10;102600.06;5028650;28;11553;-67
2023/03/28 02:47:10;;;;;;;;;0.75;0.75;;;;;3.68;69.13;102599.44;5011121;28;11493;-68
2023/03/28 02:50:06;;;;;;;;;0.00;0.00;;;;;3.66;69.10;102601.38;5026522;28;11533;-69
2023/03/28 02:53:06;;;;;;;;;7.50;3.50;;;;;3.62;69.20;102592.75;4994867;28;11496;-69
2023/03/28 02:55:53;;;;;;;;;1.50;0.00;;;;;3.62;69.38;102597.22;5032813;28;11554;-67
2023/03/28 02:58:50;;;;;;;;;3.00;1.75;;;;;3.58;69.16;102601.91;5031696;28;11484;-69
2023/03/28 03:01:17;;;;;;;;;0.50;0.50;;;;;3.57;69.14;102591.38;5015612;28;11474;-68
2023/03/28 03:03:45;;;;;;;;;0.00;0.00;;;;;3.58;69.44;102585.06;5030633;28;11506;-68
2023/03/28 03:06:12;;;;;;;;;0.00;0.00;;;;;3.57;69.56;102581.56;5033205;28;11464;-70
2023/03/28 03:08:39;;;;;;;;;2.00;0.50;;;;;3.55;69.51;102583.47;5014407;28;11523;-70
2023/03/28 03:11:08;;;;;;;;;0.00;0.00;;;;;3.55;69.66;102580.78;5032460;28;11631;-69
2023/03/28 03:13:35;;;;;;;;;5.00;1.50;;;;;3.58;69.60;102582.41;5029155;28;11595;-70
2023/03/28 03:16:02;;;;;;;;;4.00;2.00;;;;;3.60;69.67;102583.13;5017632;28;11568;-70
2023/03/28 03:18:29;;;;;;;;;0.00;0.00;;;;;3.59;69.53;102587.63;5032173;28;11484;-69
2023/03/28 03:20:56;;;;;;;;;1.00;1.00;;;;;3.59;69.57;102586.75;5032295;28;11469;-70
2023/03/28 03:23:25;;;;;;;;;1.00;1.00;;;;;3.59;69.86;102579.63;5033120;28;11480;-70
2023/03/28 03:25:54;;;;;;;;;0.00;0.00;;;;;3.62;69.91;102591.88;5030259;28;11471;-70
2023/03/28 03:28:26;;;;;;;;;2.00;0.50;;;;;3.62;70.06;102591.88;5030089;28;11473;-69
2023/03/28 03:30:53;;;;;;;;;1.25;1.00;;;;;3.60;69.43;102583.97;5014915;28;11475;-70
2023/03/28 03:33:48;;;;;;;;;2.25;2.25;;;;;3.61;69.66;102576.88;5031464;28;11480;-70
2023/03/28 03:36:19;;;;;;;;;1.25;1.00;;;;;3.62;69.38;102576.75;5009776;28;11521;-70
2023/03/28 03:38:46;;;;;;;;;0.50;0.50;;;;;3.63;69.48;102580.28;5031923;28;11512;-67
2023/03/28 03:41:18;;;;;;;;;0.00;0.00;;;;;3.62;69.32;102574.09;5015025;28;11473;-69
2023/03/28 03:43:45;;;;;;;;;1.00;0.25;;;;;3.61;68.96;102585.72;5031015;28;11454;-70
2023/03/28 03:46:12;;;;;;;;;1.00;1.00;;;;;3.57;69.02;102578.03;5016632;28;11493;-67
2023/03/28 03:48:39;;;;;;;;;1.75;0.75;;;;;3.55;69.21;102575.47;5014776;28;11614;-70
2023/03/28 03:51:16;;;;;;;;;0.50;0.50;;;;;3.54;68.61;102578.25;5032772;28;11476;-70
2023/03/28 03:53:43;;;;;;;;;1.00;1.00;;;;;3.49;68.74;102572.41;5013773;28;11470;-70
2023/03/28 03:56:13;;;;;;;;;0.00;0.00;;;;;3.48;69.22;102571.53;5024947;28;11579;-70
2023/03/28 03:58:55;;;;;;;;;0.25;0.25;;;;;3.45;69.04;102577.06;5021575;28;11470;-69
2023/03/28 04:01:28;;;;;;;;;1.00;0.00;;;;;3.44;69.10;102578.00;5031110;28;11465;-70
2023/03/28 04:04:00;;;;;;;;;1.00;1.00;;;;;3.44;69.06;102567.38;5012542;22;11491;-63
2023/03/28 04:06:39;;;;;;;;;1.00;1.00;;;;;3.41;68.94;102570.25;4974836;28;11551;-66
2023/03/28 04:09:07;;;;;;;;;0.50;0.50;;;;;3.39;68.89;102581.00;4990511;28;11577;-65
2023/03/28 04:11:53;;;;;;;;;1.00;1.00;;;;;3.38;69.02;102581.97;4980506;28;11441;-67
2023/03/28 04:14:20;;;;;;;;;4.00;1.00;;;;;3.32;68.70;102571.75;4991568;28;11432;-66
2023/03/28 04:16:49;;;;;;;;;0.25;0.25;;;;;3.31;68.81;102583.31;4988111;28;11470;-66
2023/03/28 04:19:17;;;;;;;;;0.00;0.00;;;;;3.27;68.72;102576.50;4976771;28;12210;-67
2023/03/28 04:21:47;;;;;;;;;4.25;2.25;;;;;3.26;68.90;102576.63;4973382;28;12287;-64
2023/03/28 04:24:15;;;;;;;;;1.00;1.00;;;;;3.25;68.81;102574.91;4987729;28;11481;-66
2023/03/28 04:26:49;;;;;;;;;1.00;1.00;;;;;3.23;68.88;102575.84;4990370;28;11433;-66
2023/03/28 04:29:23;;;;;;;;;0.25;0.25;;;;;3.22;69.03;102570.66;4967283;28;11417;-67
2023/03/28 04:32:11;;;;;;;;;0.50;0.50;;;;;3.19;68.81;102565.53;4982338;28;11543;-67
2023/03/28 04:34:56;;;;;;;;;0.00;0.00;;;;;3.17;69.12;102565.63;4972955;28;12194;-67
2023/03/28 04:37:23;;;;;;;;;1.00;1.00;;;;;3.18;68.88;102572.66;4981045;28;11502;-66
2023/03/28 04:39:54;;;;;;;;;1.00;1.00;;;;;3.17;68.82;102572.78;4973987;28;12192;-66
2023/03/28 04:42:40;;;;;;;;;0.25;0.25;;;;;3.16;68.65;102571.94;4976748;28;11448;-67
2023/03/28 04:45:11;;;;;;;;;1.50;0.50;;;;;3.13;68.76;102569.47;4959346;28;11421;-66
2023/03/28 04:47:41;;;;;;;;;4.00;2.00;;;;;3.12;68.66;102567.78;4956450;28;12158;-67
2023/03/28 04:50:15;;;;;;;;;1.00;1.00;;;;;3.13;68.73;102572.13;4991015;28;11487;-66
2023/03/28 04:52:42;;;;;;;;;2.25;0.75;;;;;3.12;68.73;102567.78;4987544;28;11518;-66
2023/03/28 04:55:09;;;;;;;;;3.50;2.00;;;;;3.13;68.67;102571.28;4988672;28;11553;-67
2023/03/28 04:57:37;;;;;;;;;0.00;0.00;;;;;3.15;68.82;102572.00;4956788;28;12250;-66
2023/03/28 05:00:11;;;;;;;;;1.00;1.00;;;;;3.13;68.76;102571.28;4990367;28;11429;-65
2023/03/28 05:03:00;;;;;;;;;1.00;1.00;;;;;3.13;68.69;102573.94;4991942;28;11428;-67
2023/03/28 05:05:32;;;;;;;;;1.00;1.00;;;;;3.09;68.64;102569.78;4990643;28;11447;-66
2023/03/28 05:07:59;;;;;;;;;0.75;0.75;;;;;3.09;68.75;102577.75;4989754;28;11437;-67
2023/03/28 05:10:26;;;;;;;;;2.50;1.00;;;;;3.10;68.50;102576.78;4989754;28;11429;-67
2023/03/28 05:12:59;;;;;;;;;1.00;0.00;;;;;3.08;68.43;102576.91;4983043;28;11556;-66
2023/03/28 05:15:26;;;;;;;;;1.00;1.00;;;;;3.11;68.34;102575.84;4971149;28;11512;-67
2023/03/28 05:18:04;;;;;;;;;0.00;0.00;;;;;3.12;68.42;102577.53;4972889;28;11541;-67
2023/03/28 05:20:35;;;;;;;;;2.25;1.00;;;;;3.11;68.35;102583.81;4990611;28;11441;-67
2023/03/28 05:23:05;;;;;;;;;3.50;1.25;;;;;3.12;68.34;102588.16;4987080;28;11512;-67
2023/03/28 05:25:34;;;;;;;;;0.25;0.25;;;;;3.11;68.98;102578.50;4989127;28;11489;-67
2023/03/28 05:28:01;;;;;;;;;0.50;0.50;;;;;3.09;68.48;102586.59;4989047;28;11565;-66
2023/03/28 05:30:28;;;;;;;;;1.00;0.50;;;;;3.07;68.37;102577.84;4990148;28;11477;-67
2023/03/28 05:32:57;;;;;;;;;0.75;0.75;;;;;3.10;68.45;102575.00;4986716;28;11454;-67
2023/03/28 05:35:23;;;;;;;;;1.00;1.00;;;;;3.13;68.38;102573.94;4954313;28;11597;-67
2023/03/28 05:37:50;;;;;;;;;2.00;1.00;;;;;3.14;68.26;102578.28;4983777;28;11479;-67
2023/03/28 05:40:17;;;;;;;;;1.75;1.00;;;;;3.16;68.22;102590.56;4973184;28;11420;-66
2023/03/28 05:42:44;;;;;;;;;1.00;0.75;;;;;3.17;68.01;102589.59;4989739;28;11452;-67
2023/03/28 05:45:14;;;;;;;;;1.00;1.00;;;;;3.18;67.70;102591.28;4987887;28;11433;-65
2023/03/28 05:47:59;;;;;;;;;3.50;1.00;;;;;3.21;68.06;102600.88;4986758;28;11441;-67
2023/03/28 05:50:27;;;;;;;;;1.00;1.00;;;;;3.26;67.92;102597.91;4989420;28;11539;-66
2023/03/28 05:52:59;;;;;;;;;2.25;2.25;;;;;3.27;68.03;102591.63;4981946;28;11590;-67
2023/03/28 05:55:25;;;;;;;;;1.00;1.00;;;;;3.31;68.12;102593.97;4966736;28;11474;-65
2023/03/28 05:57:52;;;;;;;;;0.50;0.50;;;;;3.36;67.95;102593.66;4975162;28;11450;-66
2023/03/28 06:00:22;;;;;;;;;1.00;1.00;;;;;3.44;68.09;102591.31;4970881;28;11422;-66
2023/03/28 06:02:50;;;;;;;;;0.00;0.00;;;;;3.63;68.35;102591.78;4972926;28;11452;-67
2023/03/28 06:05:20;;;;;;;;;1.00;1.00;;;;;3.94;67.73;102592.31;4987632;28;11487;-67
2023/03/28 06:07:47;;;;;;;;;1.25;1.25;;;;;4.09;66.90;102595.69;4970338;28;11445;-67
2023/03/28 06:10:16;;;;;;;;;2.00;2.00;;;;;4.19;66.60;102589.59;4987078;28;11470;-67
2023/03/28 06:12:55;;;;;;;;;0.00;0.00;;;;;4.21;65.85;102592.13;4972352;28;11449;-67
2023/03/28 06:15:22;;;;;;;;;1.25;1.25;;;;;4.18;66.23;102585.25;4983343;28;11468;-67
2023/03/28 06:17:49;;;;;;;;;1.25;1.25;;;;;4.14;66.70;102586.41;4987488;28;11489;-67
2023/03/28 06:20:16;;;;;;;;;4.00;2.00;;;;;4.16;66.28;102580.97;4988597;28;11538;-67
2023/03/28 06:22:42;;;;;;;;;1.25;1.00;;;;;4.22;66.55;102580.53;4970127;28;11530;-66
2023/03/28 06:25:09;;;;;;;;;2.00;1.75;;;;;4.30;66.62;102580.00;4972867;28;11439;-67
2023/03/28 06:27:36;;;;;;;;;2.00;2.00;;;;;4.41;66.57;102586.22;4972733;28;11440;-66
2023/03/28 06:30:04;;;;;;;;;1.00;1.00;;;;;4.54;66.40;102588.00;4973009;28;12192;-67
2023/03/28 06:32:37;;;;;;;;;1.75;1.75;;;;;4.66;66.34;102589.78;4968551;28;11526;-67
2023/03/28 06:35:05;;;;;;;;;2.00;2.00;;;;;4.80;66.13;102588.78;4987741;28;11448;-67
2023/03/28 06:37:31;;;;;;;;;4.25;4.25;;;;;4.85;65.78;102586.59;4967438;28;11420;-66
2023/03/28 06:40:05;;;;;;;;;2.50;2.25;;;;;4.91;66.09;102597.69;4973221;28;11567;-67
2023/03/28 06:42:31;;;;;;;;;4.25;4.00;;;;;4.94;65.41;102588.56;4965829;28;11428;-66
2023/03/28 06:45:13;;;;;;;;;1.75;1.50;;;;;4.96;65.88;102595.50;4988384;28;12184;-67
2023/03/28 06:47:51;;;;;;;;;5.25;2.25;;;;;4.93;65.41;102598.41;4965488;28;11720;-66
2023/03/28 06:50:24;;;;;;;;;2.00;2.00;;;;;4.83;65.46;102596.56;4963171;28;11674;-66
2023/03/28 06:52:56;;;;;;;;;2.25;2.25;;;;;4.75;65.96;102599.78;4982137;28;11561;-67
2023/03/28 06:55:23;;;;;;;;;2.25;2.25;;;;;4.67;66.15;102596.81;4967075;28;11481;-67
2023/03/28 06:57:49;;;;;;;;;4.00;2.50;;;;;4.62;66.40;102599.00;4967318;28;11601;-67
2023/03/28 07:00:21;;;;;;;;;2.50;2.00;;;;;4.60;66.28;102598.22;4981014;28;12244;-68
2023/03/28 07:03:17;;;;;;;;;1.00;1.00;;;;;4.56;66.62;102604.75;4982638;28;11438;-66
2023/03/28 07:05:44;;;;;;;;;3.00;3.00;;;;;4.55;67.26;102597.72;4983214;28;11444;-66
2023/03/28 07:08:12;;;;;;;;;9.50;5.50;;;;;4.53;66.73;102597.81;4967560;28;11437;-67
2023/03/28 07:10:39;;;;;;;;;3.00;3.00;;;;;4.53;66.96;102591.63;4964569;28;11560;-67
2023/03/28 07:13:07;;;;;;;;;2.25;2.25;;;;;4.59;67.44;102600.06;4981054;28;11473;-65
2023/03/28 07:15:39;;;;;;;;;4.75;2.00;;;;;4.71;67.11;102596.50;4965340;28;11502;-66
2023/03/28 07:18:09;;;;;;;;;4.75;3.50;;;;;4.86;67.49;102594.50;4983340;28;11426;-66
2023/03/28 07:20:40;;;;;;;;;4.75;4.75;;;;;5.04;67.13;102600.28;4965820;28;11463;-66
2023/03/28 07:23:07;;;;;;;;;5.00;4.00;;;;;5.19;66.90;102598.28;4980304;28;11449;-66
2023/03/28 07:25:33;;;;;;;;;3.50;2.00;;;;;5.31;66.20;102600.03;4982305;28;11437;-65
2023/03/28 07:28:01;;;;;;;;;2.00;2.00;;;;;5.39;66.28;102610.97;4982330;28;11431;-66
2023/03/28 07:30:28;;;;;;;;;5.00;4.00;;;;;5.42;65.80;102600.03;4981668;28;11451;-66
2023/03/28 07:32:54;;;;;;;;;5.00;4.00;;;;;5.51;65.91;102605.63;4983670;28;11475;-65
2023/03/28 07:35:40;;;;;;;;;6.75;5.00;;;;;5.59;65.72;102614.78;4986983;28;11684;-65
2023/03/28 07:38:10;;;;;;;;;2.00;2.00;;;;;5.64;65.76;102595.72;4986929;28;11444;-66
2023/03/28 07:40:48;;;;;;;;;5.50;4.75;;;;;5.69;64.68;102604.22;4972028;28;11488;-66
2023/03/28 07:43:15;;;;;;;;;2.00;2.00;;;;;5.62;64.87;102600.31;4972865;28;11681;-66
2023/03/28 07:45:41;;;;;;;;;2.50;2.50;;;;;5.59;64.93;102605.91;4970185;28;12366;-66
2023/03/28 07:48:09;;;;;;;;;6.50;4.50;;;;;5.64;65.24;102595.72;4986233;28;11451;-66
2023/03/28 07:50:35;;;;;;;;;1.25;1.25;;;;;5.73;65.00;102603.03;4988134;28;12252;-67
2023/03/28 07:53:02;;;;;;;;;2.00;1.25;;;;;5.90;64.37;102607.06;4969616;28;11499;-67
2023/03/28 07:55:35;;;;;;;;;2.50;2.00;;;;;6.02;64.47;102602.59;4968066;28;11207;-67
2023/03/28 07:58:19;;;;;;;;;2.00;2.00;;;;;6.15;63.79;102601.50;4985785;28;11176;-66
2023/03/28 08:00:46;;;;;;;;;3.00;2.00;;;;;6.21;63.24;102608.19;4985596;28;11977;-67
2023/03/28 08:03:40;;;;;;;;;2.00;2.00;;;;;6.24;62.98;102607.06;4968012;28;11647;-66
2023/03/28 08:06:09;;;;;;;;;3.00;3.00;;;;;6.24;62.80;102599.06;4967976;28;11049;-65
2023/03/28 08:08:56;;;;;;;;;4.00;2.00;;;;;6.30;62.58;102591.41;4984957;28;11128;-66
2023/03/28 08:11:29;;;;;;;;;5.00;5.00;;;;;6.36;62.11;102590.91;4968857;28;11309;-66
2023/03/28 08:13:56;;;;;;;;;4.00;1.50;;;;;6.44;62.60;102591.16;4986703;28;11227;-65
2023/03/28 08:16:22;;;;;;;;;4.75;4.25;;;;;6.51;62.20;102583.47;4984649;28;11143;-65
2023/03/28 08:18:50;;;;;;;;;4.75;4.00;;;;;6.62;61.84;102593.28;4969338;28;11236;-66
2023/03/28 08:21:41;;;;;;;;;1.50;1.25;;;;;6.67;61.47;102580.38;4984546;28;11091;-66
2023/03/28 08:24:09;;;;;;;;;4.00;1.50;;;;;6.72;60.76;102583.53;4968606;28;11010;-66
2023/03/28 08:26:53;;;;;;;;;3.00;3.00;;;;;6.76;61.27;102579.63;4985353;28;10912;-69
2023/03/28 08:29:20;;;;;;;;;7.50;5.00;;;;;6.77;60.96;102586.69;4972047;28;11014;-66
2023/03/28 08:31:46;;;;;;;;;4.00;3.00;;;;;6.76;60.31;102578.78;4985394;28;10912;-67
2023/03/28 08:34:14;;;;;;;;;1.75;1.75;;;;;6.90;59.98;102583.84;4987274;28;11077;-65
2023/03/28 08:36:41;;;;;;;;;2.00;2.00;;;;;6.93;59.66;102584.44;4970067;28;11676;-67
2023/03/28 08:39:20;;;;;;;;;4.00;4.00;;;;;6.93;60.87;102589.78;4969672;28;10999;-70
2023/03/28 08:42:09;;;;;;;;;4.25;4.25;;;;;6.99;59.47;102591.09;4987477;28;10952;-65
2023/03/28 08:45:07;;;;;;;;;3.50;3.50;;;;;7.05;59.32;102584.38;4964961;28;10901;-68
2023/03/28 08:47:45;;;;;;;;;2.00;2.00;;;;;7.18;58.77;102590.41;4981816;28;10820;-66
2023/03/28 08:50:22;;;;;;;;;2.00;2.00;;;;;7.31;57.91;102572.31;4967941;28;10931;-67
2023/03/28 08:52:50;;;;;;;;;6.50;4.00;;;;;7.36;57.63;102572.78;4983600;28;11012;-66
2023/03/28 08:55:41;;;;;;;;;3.25;3.25;;;;;7.57;57.01;102579.97;4966094;28;10962;-67
2023/03/28 08:58:20;;;;;;;;;4.50;4.00;;;;;7.63;56.35;102587.47;4985658;28;10802;-66
2023/03/28 09:00:48;;;;;;;;;1.00;1.00;;;;;7.79;55.98;102585.19;4968401;28;11628;-67
2023/03/28 09:03:19;;;;;;;;;7.00;4.25;;;;;7.81;55.01;102580.50;4983318;28;10898;-67
2023/03/28 09:05:47;;;;;;;;;3.00;2.00;;;;;7.85;55.04;102573.91;4968397;28;10817;-65
2023/03/28 09:08:36;;;;;;;;;4.00;4.00;;;;;8.03;55.48;102575.97;4968104;28;10648;-66
2023/03/28 09:11:21;;;;;;;;;3.50;3.50;;;;;8.09;54.40;102565.53;4967800;28;10703;-66
2023/03/28 09:14:30;;;;;;;;;2.75;2.75;;;;;8.04;53.34;102569.63;4968807;28;10725;-67
2023/03/28 09:17:35;;;;;;;;;1.00;1.00;;;;;7.96;53.43;102562.25;4964125;28;11533;-66
2023/03/28 09:20:18;;;;;;;;;5.25;4.50;;;;;7.86;53.03;102567.59;4984379;28;10627;-65
2023/03/28 09:23:07;;;;;;;;;2.00;2.00;;;;;7.76;53.27;102568.50;4984605;28;10689;-67
2023/03/28 09:26:13;;;;;;;;;4.75;4.00;;;;;7.72;53.58;102567.91;4973918;28;10670;-67
2023/03/28 09:29:01;;;;;;;;;2.00;2.00;;;;;7.69;53.48;102565.50;4966383;28;10862;-67
2023/03/28 09:31:37;;;;;;;;;6.00;4.00;;;;;7.66;53.61;102558.59;4982538;28;10811;-67
2023/03/28 09:34:05;;;;;;;;;4.75;4.75;;;;;7.71;55.57;102558.19;4981990;28;10995;-65
2023/03/28 09:36:43;;;;;;;;;4.25;4.25;;;;;7.75;53.94;102556.94;4983874;28;11776;-65
2023/03/28 09:39:25;;;;;;;;;7.00;4.00;;;;;7.59;53.21;102548.53;4966943;28;11456;-67
2023/03/28 09:42:02;;;;;;;;;2.00;2.00;;;;;7.46;52.18;102547.91;4968648;28;11710;-68
2023/03/28 09:44:59;;;;;;;;;2.50;2.00;;;;;7.40;52.67;102551.94;4983558;28;10754;-66
2023/03/28 09:47:47;;;;;;;;;6.25;5.00;;;;;7.33;52.65;102550.75;4975387;28;11427;-67
2023/03/28 09:50:18;;;;;;;;;6.00;5.50;;;;;7.37;52.77;102547.72;4969056;28;10993;-67
2023/03/28 09:52:50;;;;;;;;;4.25;4.25;;;;;7.33;52.63;102537.34;4966428;28;11021;-69
2023/03/28 09:55:22;;;;;;;;;5.50;4.00;;;;;7.38;53.24;102532.47;4964886;28;10857;-67
2023/03/28 09:58:05;;;;;;;;;9.25;6.75;;;;;7.32;52.11;102527.63;4981415;28;11108;-66
2023/03/28 10:00:53;;;;;;;;;4.50;4.50;;;;;7.37;51.75;102526.28;4982431;28;11019;-67
2023/03/28 10:03:52;;;;;;;;;10.75;7.00;;;;;7.40;51.15;102522.47;5023739;22;10956;-66
2023/03/28 10:06:26;;;;;;;;;7.00;7.00;;;;;7.43;51.69;102515.00;4975883;28;11005;-66
2023/03/28 10:09:15;;;;;;;;;6.50;5.25;;;;;7.46;51.80;102516.59;4995758;28;11020;-66
2023/03/28 10:12:07;;;;;;;;;8.25;5.00;;;;;7.47;51.71;102514.75;5014494;28;10892;-66
2023/03/28 10:14:45;;;;;;;;;6.25;6.25;;;;;7.48;51.94;102508.41;4999913;28;11224;-67
2023/03/28 10:17:39;;;;;;;;;5.50;5.25;;;;;7.42;51.46;102499.94;5001457;28;11727;-64
2023/03/28 10:20:22;;;;;;;;;5.00;5.00;;;;;7.33;50.57;102508.78;5002069;28;10936;-65
2023/03/28 10:22:54;;;;;;;;;8.00;7.00;;;;;7.31;50.66;102502.69;4985228;28;10986;-66
2023/03/28 10:25:34;;;;;;;;;10.00;9.00;;;;;7.28;51.03;102492.22;4985403;28;11138;-65
2023/03/28 10:28:03;;;;;;;;;9.75;7.50;;;;;7.23;50.84;102499.81;4985962;28;11013;-65
2023/03/28 10:30:34;;;;;;;;;5.50;5.50;;;;;7.30;50.71;102501.00;4983505;28;12417;-64
2023/03/28 10:33:17;;;;;;;;;8.75;6.00;;;;;7.25;49.63;102495.19;5001656;28;11853;-66
2023/03/28 10:36:11;;;;;;;;;4.50;4.00;;;;;7.21;49.42;102498.22;5003075;28;11318;-68
2023/03/28 10:38:46;;;;;;;;;7.75;7.25;;;;;7.11;49.51;102487.47;4985482;28;11285;-65
2023/03/28 10:41:59;;;;;;;;;6.50;4.00;;;;;7.11;49.79;102482.13;4963451;28;11048;-65
2023/03/28 10:44:43;;;;;;;;;6.00;5.75;;;;;6.96;49.44;102468.19;4930218;28;11066;-64
2023/03/28 10:47:17;;;;;;;;;8.25;4.25;;;;;7.04;49.46;102473.75;4979146;28;11264;-66
2023/03/28 10:49:54;;;;;;;;;4.50;4.50;;;;;7.23;50.65;102456.97;4984047;28;11009;-66
2023/03/28 10:52:30;;;;;;;;;5.00;5.00;;;;;7.34;49.92;102451.53;4985457;28;11218;-66
2023/03/28 10:55:08;;;;;;;;;3.00;3.00;;;;;7.49;50.14;102453.81;5000081;28;11540;-65
2023/03/28 10:58:02;;;;;;;;;5.75;5.75;;;;;7.63;49.63;102454.31;4986532;28;11901;-66
2023/03/28 11:00:40;;;;;;;;;6.00;6.00;;;;;7.78;49.46;102457.50;4980626;28;11090;-66
2023/03/28 11:03:37;;;;;;;;;5.00;4.50;;;;;7.77;49.15;102447.72;5000877;28;10936;-65
2023/03/28 11:06:34;;;;;;;;;5.50;5.50;;;;;7.79;48.48;102437.72;4984540;28;11100;-66
2023/03/28 11:09:02;;;;;;;;;3.50;3.50;;;;;7.95;49.39;102425.63;4977526;28;11019;-66
2023/03/28 11:11:45;;;;;;;;;7.00;6.00;;;;;8.06;49.16;102430.84;4997317;28;10996;-67
2023/03/28 11:14:36;;;;;;;;;5.50;4.75;;;;;8.13;47.89;102434.69;5001484;28;10996;-64
2023/03/28 11:17:20;;;;;;;;;2.00;2.00;;;;;8.22;46.06;102431.16;4991243;28;10828;-65
2023/03/28 11:20:25;;;;;;;;;2.50;2.50;;;;;8.23;44.96;102427.50;5012244;28;12164;-66
2023/03/28 11:23:09;;;;;;;;;1.75;1.75;;;;;8.20;44.21;102424.25;4994069;28;10687;-67
2023/03/28 11:26:03;;;;;;;;;3.50;2.00;;;;;8.24;44.13;102413.09;5007947;28;10609;-66
2023/03/28 11:28:58;;;;;;;;;2.00;2.00;;;;;8.07;44.90;102413.81;4994796;28;10988;-67
2023/03/28 11:31:31;;;;;;;;;4.00;2.00;;;;;8.05;44.53;102405.03;4997753;28;10743;-67
2023/03/28 11:34:09;;;;;;;;;2.00;2.00;;;;;8.01;45.00;102411.66;5011220;28;10724;-67
2023/03/28 11:36:59;;;;;;;;;5.00;5.00;;;;;7.97;45.48;102402.19;4981266;28;10621;-66
2023/03/28 11:39:41;;;;;;;;;3.50;3.00;;;;;7.91;44.74;102403.63;4999524;28;11487;-65
2023/03/28 11:42:24;;;;;;;;;4.00;4.00;;;;;8.00;45.21;102397.41;5011068;28;10685;-65
2023/03/28 11:45:07;;;;;;;;;1.00;1.00;;;;;8.04;44.94;102392.63;4983714;28;10668;-64
2023/03/28 11:47:40;;;;;;;;;3.00;3.00;;;;;8.03;45.08;102391.78;5002007;28;10710;-65
2023/03/28 11:50:30;;;;;;;;;3.50;2.00;;;;;8.07;45.35;102390.50;4983402;28;11407;-66
2023/03/28 11:53:13;;;;;;;;;5.50;2.00;;;;;7.93;45.39;102381.03;4966413;28;10832;-66
2023/03/28 11:56:01;;;;;;;;;2.50;2.50;;;;;8.01;45.96;102368.75;5006844;28;10711;-66
2023/03/28 11:59:14;;;;;;;;;4.00;4.00;;;;;7.87;45.84;102367.34;4989648;28;10753;-64
2023/03/28 12:01:47;;;;;;;;;1.50;1.50;;;;;7.90;45.25;102372.44;4986819;28;10717;-65
2023/03/28 12:04:27;;;;;;;;;4.50;3.50;;;;;7.93;46.18;102370.28;4984436;28;10714;-66
2023/03/28 12:07:18;;;;;;;;;4.25;3.00;;;;;7.87;45.20;102370.03;4993301;28;10843;-66
2023/03/28 12:10:02;;;;;;;;;8.00;7.00;;;;;7.79;45.81;102361.81;4992523;28;10799;-66
2023/03/28 12:12:35;;;;;;;;;10.50;10.00;;;;;7.61;45.79;102357.13;4989044;28;11759;-67
2023/03/28 12:15:17;;;;;;;;;5.50;5.50;;;;;7.66;46.22;102356.72;4993336;28;10930;-67
2023/03/28 12:18:05;;;;;;;;;7.75;7.25;;;;;7.77;46.88;102353.06;4977778;28;10995;-67